Time,TemperatureF,DewpointF,PressureIn,WindDirection,WindDirectionDegrees,WindSpeedMPH,WindSpeedGustMPH,Humidity,HourlyPrecipIn,Conditions,Clouds,dailyrainin,SoftwareType,DateUTC
2013-06-24 00:02:00,61.0,60.0,29.63,NW,315,0.0,1.0,97,0.00,,,0.03,,2013-06-24 07:02:00,
2013-06-24 00:12:00,61.0,60.0,29.63,North,-999,0.0,0.0,98,0.00,,,0.03,,2013-06-24 07:12:00,
2013-06-24 00:24:00,61.0,60.0,29.63,North,-999,0.0,0.0,98,0.00,,,0.03,,2013-06-24 07:24:00,
2013-06-24 00:33:00,61.0,60.0,29.63,East,90,0.0,1.0,98,0.16,,,0.19,,2013-06-24 07:33:00,
2013-06-24 00:44:00,61.0,60.0,29.63,ENE,67,0.0,3.0,98,0.28,,,0.31,,2013-06-24 07:44:00,
2013-06-24 00:53:00,61.0,60.0,29.63,NW,315,0.0,1.0,98,0.30,,,0.33,,2013-06-24 07:53:00,
2013-06-24 01:02:00,61.0,60.0,29.63,North,-999,0.0,0.0,98,0.30,,,0.33,,2013-06-24 08:02:00,
2013-06-24 01:12:00,61.0,60.0,29.63,North,-999,0.0,0.0,98,0.30,,,0.33,,2013-06-24 08:12:00,
2013-06-24 01:33:00,61.0,60.0,29.63,NNE,22,0.0,1.0,98,0.30,,,0.33,,2013-06-24 08:33:00,
2013-06-24 01:43:00,60.0,59.0,29.63,NNW,337,0.0,2.0,98,0.02,,,0.33,,2013-06-24 08:43:00,
2013-06-24 01:52:00,60.0,59.0,29.63,NW,315,0.0,1.0,98,0.00,,,0.33,,2013-06-24 08:52:00,
2013-06-24 02:02:00,60.0,59.0,29.63,NNE,22,0.0,1.0,98,0.01,,,0.34,,2013-06-24 09:02:00,
2013-06-24 02:43:00,60.0,59.0,29.62,North,-999,0.0,0.0,98,0.01,,,0.34,,2013-06-24 09:43:00,
2013-06-24 02:53:00,59.0,59.0,29.62,NE,45,0.0,1.0,99,0.01,,,0.34,,2013-06-24 09:53:00,
2013-06-24 03:02:00,59.0,59.0,29.62,North,0,0.0,1.0,99,0.00,,,0.34,,2013-06-24 10:02:00,
2013-06-24 03:12:00,59.0,59.0,29.62,West,270,0.0,1.0,99,0.00,,,0.34,,2013-06-24 10:12:00,
2013-06-24 03:22:00,59.0,59.0,29.62,West,270,0.0,1.0,99,0.00,,,0.34,,2013-06-24 10:22:00,
2013-06-24 03:54:00,59.0,59.0,29.62,NNW,337,0.0,1.0,99,0.00,,,0.34,,2013-06-24 10:54:00,
2013-06-24 04:02:00,59.0,59.0,29.62,North,-999,0.0,0.0,99,0.01,,,0.35,,2013-06-24 11:02:00,
2013-06-24 04:12:00,59.0,59.0,29.62,North,0,0.0,1.0,99,0.01,,,0.35,,2013-06-24 11:12:00,
2013-06-24 04:43:00,59.0,59.0,29.61,North,-999,0.0,0.0,99,0.02,,,0.36,,2013-06-24 11:43:00,
2013-06-24 04:53:00,59.0,59.0,29.61,ENE,67,0.0,1.0,99,0.04,,,0.38,,2013-06-24 11:53:00,
2013-06-24 05:02:00,59.0,59.0,29.61,East,90,0.0,1.0,99,0.03,,,0.38,,2013-06-24 12:02:00,
2013-06-24 05:34:00,59.0,59.0,29.61,North,-999,0.0,0.0,99,0.02,,,0.38,,2013-06-24 12:34:00,
2013-06-24 05:44:00,58.0,58.0,29.61,North,-999,0.0,0.0,99,0.02,,,0.38,,2013-06-24 12:44:00,
2013-06-24 05:53:00,58.0,58.0,29.61,North,-999,0.0,0.0,99,0.02,,,0.38,,2013-06-24 12:53:00,
2013-06-24 06:02:00,59.0,59.0,29.61,North,-999,0.0,0.0,99,0.00,,,0.38,,2013-06-24 13:02:00,
2013-06-24 06:12:00,59.0,59.0,29.61,North,-999,0.0,0.0,99,0.00,,,0.38,,2013-06-24 13:12:00,
2013-06-24 06:22:00,59.0,59.0,29.61,North,-999,0.0,0.0,99,0.00,,,0.38,,2013-06-24 13:22:00,
2013-06-24 06:42:00,59.0,59.0,29.61,North,-999,0.0,0.0,99,0.00,,,0.38,,2013-06-24 13:42:00,
2013-06-24 06:53:00,59.0,59.0,29.61,North,-999,0.0,0.0,99,0.00,,,0.38,,2013-06-24 13:53:00,
2013-06-24 07:02:00,59.0,59.0,29.61,ESE,112,0.0,1.0,99,0.00,,,0.38,,2013-06-24 14:02:00,
2013-06-24 07:11:00,59.0,59.0,29.61,North,-999,0.0,0.0,99,0.00,,,0.38,,2013-06-24 14:11:00,
2013-06-24 07:22:00,60.0,60.0,29.61,North,-999,0.0,0.0,99,0.00,,,0.38,,2013-06-24 14:22:00,
2013-06-24 07:34:00,60.0,60.0,29.61,SW,225,0.0,1.0,99,0.00,,,0.38,,2013-06-24 14:34:00,
2013-06-24 07:43:00,60.0,60.0,29.62,SSE,157,0.0,1.0,99,0.00,,,0.38,,2013-06-24 14:43:00,
2013-06-24 08:12:00,59.0,58.0,29.64,NNE,22,1.0,3.0,98,0.01,,,0.39,,2013-06-24 15:12:00,
2013-06-24 08:34:00,57.0,56.0,29.66,NE,45,1.0,5.0,97,0.01,,,0.39,,2013-06-24 15:34:00,
2013-06-24 08:43:00,56.0,55.0,29.67,NW,315,1.0,5.0,97,0.02,,,0.40,,2013-06-24 15:43:00,
2013-06-24 08:53:00,56.0,55.0,29.67,NNW,337,1.0,5.0,97,0.03,,,0.42,,2013-06-24 15:53:00,
2013-06-24 09:02:00,56.0,55.0,29.67,NE,45,1.0,3.0,97,0.04,,,0.43,,2013-06-24 16:02:00,
2013-06-24 09:23:00,56.0,55.0,29.69,WSW,247,1.0,4.0,97,0.05,,,0.44,,2013-06-24 16:23:00,
2013-06-24 10:02:00,56.0,55.0,29.70,ENE,67,1.0,5.0,96,0.02,,,0.45,,2013-06-24 17:02:00,
2013-06-24 10:11:00,56.0,55.0,29.70,ENE,67,1.0,5.0,96,0.02,,,0.45,,2013-06-24 17:11:00,
2013-06-24 10:22:00,56.0,55.0,29.71,NE,45,1.0,4.0,96,0.02,,,0.46,,2013-06-24 17:22:00,
2013-06-24 10:33:00,56.0,55.0,29.71,NE,45,1.0,4.0,96,0.02,,,0.46,,2013-06-24 17:33:00,
2013-06-24 10:54:00,56.0,55.0,29.70,NW,315,1.0,3.0,96,0.02,,,0.47,,2013-06-24 17:54:00,
2013-06-24 11:01:00,56.0,55.0,29.70,NE,45,1.0,3.0,96,0.02,,,0.47,,2013-06-24 18:01:00,
2013-06-24 11:23:00,56.0,55.0,29.70,ENE,67,1.0,6.0,96,0.03,,,0.49,,2013-06-24 18:23:00,
2013-06-24 11:33:00,56.0,55.0,29.70,NNW,337,1.0,3.0,97,0.03,,,0.49,,2013-06-24 18:33:00,
2013-06-24 11:53:00,57.0,56.0,29.70,NE,45,1.0,4.0,97,0.02,,,0.49,,2013-06-24 18:53:00,
2013-06-24 12:12:00,58.0,57.0,29.70,WNW,292,0.0,1.0,95,0.01,,,0.49,,2013-06-24 19:12:00,
2013-06-24 12:34:00,58.0,56.0,29.71,NNE,22,1.0,4.0,94,0.00,,,0.49,,2013-06-24 19:34:00,
2013-06-24 12:42:00,58.0,56.0,29.71,NE,45,1.0,4.0,93,0.00,,,0.49,,2013-06-24 19:42:00,
2013-06-24 12:53:00,58.0,56.0,29.71,NE,45,1.0,4.0,93,0.00,,,0.49,,2013-06-24 19:53:00,
2013-06-24 13:02:00,60.0,57.0,29.70,NW,315,1.0,4.0,91,0.00,,,0.49,,2013-06-24 20:02:00,
2013-06-24 13:11:00,60.0,57.0,29.70,NW,315,1.0,4.0,91,0.00,,,0.49,,2013-06-24 20:11:00,
2013-06-24 13:33:00,61.0,57.0,29.71,NE,45,1.0,5.0,87,0.00,,,0.49,,2013-06-24 20:33:00,
2013-06-24 13:43:00,62.0,56.0,29.70,ENE,67,2.0,6.0,81,0.00,,,0.49,,2013-06-24 20:43:00,
2013-06-24 14:43:00,64.0,58.0,29.70,NNE,22,1.0,4.0,81,0.00,,,0.49,,2013-06-24 21:43:00,
2013-06-24 14:52:00,64.0,58.0,29.70,NNE,22,1.0,4.0,81,0.00,,,0.49,,2013-06-24 21:52:00,
2013-06-24 15:02:00,64.0,57.0,29.70,SSW,202,0.0,3.0,78,0.00,,,0.48,,2013-06-24 22:02:00,
2013-06-24 15:12:00,64.0,57.0,29.70,SSW,202,0.0,3.0,78,0.00,,,0.48,,2013-06-24 22:12:00,
2013-06-24 15:21:00,63.0,55.0,29.70,East,90,1.0,2.0,76,0.00,,,0.48,,2013-06-24 22:21:00,
2013-06-24 15:34:00,63.0,56.0,29.70,North,0,1.0,3.0,78,0.00,,,0.48,,2013-06-24 22:34:00,
2013-06-24 15:44:00,64.0,58.0,29.71,WSW,247,1.0,3.0,80,0.00,,,0.48,,2013-06-24 22:44:00,
2013-06-24 15:53:00,64.0,58.0,29.71,WSW,247,1.0,3.0,80,0.00,,,0.48,,2013-06-24 22:53:00,
2013-06-24 16:02:00,63.0,56.0,29.71,WNW,292,1.0,3.0,78,0.00,,,0.48,,2013-06-24 23:02:00,
2013-06-24 16:53:00,64.0,56.0,29.70,NE,45,1.0,6.0,76,0.00,,,0.48,,2013-06-24 23:53:00,
2013-06-24 17:44:00,64.0,58.0,29.70,NE,45,1.0,2.0,80,0.00,,,0.48,,2013-06-25 00:44:00,
2013-06-24 17:52:00,64.0,58.0,29.70,NE,45,1.0,2.0,80,0.00,,,0.48,,2013-06-25 00:52:00,
2013-06-24 18:02:00,64.0,56.0,29.70,NE,45,0.0,3.0,76,0.00,,,0.48,,2013-06-25 01:02:00,
2013-06-24 18:33:00,64.0,57.0,29.70,WNW,292,0.0,1.0,78,0.00,,,0.47,,2013-06-25 01:33:00,
2013-06-24 18:43:00,63.0,57.0,29.70,WSW,247,0.0,1.0,80,0.00,,,0.47,,2013-06-25 01:43:00,
2013-06-24 18:52:00,62.0,56.0,29.70,SSW,202,0.0,1.0,82,0.00,,,0.47,,2013-06-25 01:52:00,
2013-06-24 19:02:00,61.0,56.0,29.70,North,-999,0.0,0.0,85,0.00,,,0.47,,2013-06-25 02:02:00,
2013-06-24 19:11:00,61.0,56.0,29.70,North,-999,0.0,0.0,85,0.00,,,0.47,,2013-06-25 02:11:00,
2013-06-24 19:34:00,60.0,58.0,29.71,North,-999,0.0,0.0,92,0.05,,,0.52,,2013-06-25 02:34:00,
2013-06-24 19:43:00,61.0,58.0,29.71,SE,135,0.0,1.0,91,0.06,,,0.53,,2013-06-25 02:43:00,
2013-06-24 19:53:00,60.0,58.0,29.71,ESE,112,0.0,1.0,92,0.06,,,0.53,,2013-06-25 02:53:00,
2013-06-24 20:02:00,59.0,57.0,29.71,North,-999,0.0,0.0,93,0.06,,,0.53,,2013-06-25 03:02:00,
2013-06-24 20:12:00,59.0,57.0,29.71,North,-999,0.0,0.0,93,0.06,,,0.53,,2013-06-25 03:12:00,
2013-06-24 20:34:00,58.0,57.0,29.71,SSW,202,0.0,1.0,95,0.04,,,0.53,,2013-06-25 03:34:00,
2013-06-24 20:44:00,57.0,56.0,29.71,WSW,247,0.0,1.0,96,0.00,,,0.53,,2013-06-25 03:44:00,
2013-06-24 20:53:00,57.0,56.0,29.71,WSW,247,0.0,1.0,96,0.00,,,0.53,,2013-06-25 03:53:00,
2013-06-24 21:01:00,57.0,56.0,29.71,North,-999,0.0,0.0,96,0.00,,,0.53,,2013-06-25 04:01:00,
2013-06-24 21:11:00,57.0,56.0,29.71,SSW,202,0.0,1.0,97,0.00,,,0.53,,2013-06-25 04:11:00,
2013-06-24 21:22:00,57.0,56.0,29.71,SW,225,0.0,1.0,97,0.00,,,0.53,,2013-06-25 04:22:00,
2013-06-24 21:33:00,57.0,56.0,29.71,North,-999,0.0,0.0,97,0.00,,,0.53,,2013-06-25 04:33:00,
2013-06-24 21:42:00,57.0,56.0,29.72,SSW,202,0.0,2.0,97,0.00,,,0.53,,2013-06-25 04:42:00,
2013-06-24 21:52:00,57.0,56.0,29.72,North,-999,0.0,0.0,97,0.00,,,0.53,,2013-06-25 04:52:00,
2013-06-24 22:01:00,57.0,56.0,29.72,WSW,247,0.0,1.0,97,0.00,,,0.53,,2013-06-25 05:01:00,
2013-06-24 22:11:00,57.0,56.0,29.72,North,-999,0.0,0.0,97,0.00,,,0.53,,2013-06-25 05:11:00,
2013-06-24 22:21:00,57.0,56.0,29.72,North,-999,0.0,0.0,97,0.00,,,0.53,,2013-06-25 05:21:00,
2013-06-24 22:32:00,56.0,55.0,29.73,North,-999,0.0,0.0,97,0.00,,,0.53,,2013-06-25 05:32:00,
2013-06-24 22:44:00,56.0,55.0,29.73,North,-999,0.0,0.0,97,0.00,,,0.53,,2013-06-25 05:44:00,
2013-06-24 22:52:00,56.0,55.0,29.73,West,270,0.0,1.0,97,0.00,,,0.52,,2013-06-25 05:52:00,
2013-06-24 23:01:00,56.0,55.0,29.73,North,-999,0.0,0.0,97,0.00,,,0.52,,2013-06-25 06:01:00,
2013-06-24 23:11:00,55.0,54.0,29.73,North,-999,0.0,0.0,98,0.00,,,0.52,,2013-06-25 06:11:00,
2013-06-24 23:21:00,55.0,54.0,29.73,NNW,337,0.0,2.0,98,0.01,,,0.53,,2013-06-25 06:21:00,
2013-06-24 23:33:00,55.0,54.0,29.73,WSW,247,0.0,1.0,98,0.01,,,0.53,,2013-06-25 06:33:00,
2013-06-24 23:43:00,55.0,54.0,29.73,SSW,202,0.0,1.0,98,0.01,,,0.53,,2013-06-25 06:43:00,
2013-06-24 23:52:00,55.0,54.0,29.73,SW,225,0.0,1.0,98,0.01,,,0.53,,2013-06-25 06:52:00,